createdAt,value
2023-04-27T00:00:13.901Z,520.00
2023-04-27T00:01:13.923Z,521.00
2023-04-27T00:02:14.093Z,522.00
2023-04-27T00:03:14.190Z,524.00
2023-04-27T00:04:14.200Z,525.00
2023-04-27T00:05:14.345Z,519.00
2023-04-27T00:06:14.068Z,515.00
2023-04-27T00:07:14.050Z,523.00
2023-04-27T00:08:14.111Z,520.00
2023-04-27T00:09:14.251Z,519.00
2023-04-27T00:10:14.143Z,517.00
2023-04-27T00:11:14.171Z,516.00
2023-04-27T00:12:14.185Z,524.00
2023-04-27T00:13:14.196Z,525.00
2023-04-27T00:14:14.232Z,523.00
2023-04-27T00:15:14.305Z,525.00
2023-04-27T00:16:14.410Z,525.00
2023-04-27T00:17:14.450Z,528.00
2023-04-27T00:18:14.537Z,528.00
2023-04-27T00:19:14.765Z,524.00
2023-04-27T00:20:14.649Z,520.00
2023-04-27T00:21:14.715Z,525.00
2023-04-27T00:22:14.795Z,521.00
2023-04-27T00:23:14.885Z,520.00
2023-04-27T00:24:14.932Z,519.00
2023-04-27T00:25:15.005Z,520.00
2023-04-27T00:26:15.074Z,519.00
2023-04-27T00:27:15.142Z,515.00
2023-04-27T00:28:15.255Z,520.00
2023-04-27T00:29:15.458Z,519.00
2023-04-27T00:30:15.356Z,520.00
2023-04-27T00:31:15.580Z,517.00
2023-04-27T00:32:15.691Z,517.00
2023-04-27T00:33:15.655Z,520.00
2023-04-27T00:34:15.627Z,522.00
2023-04-27T00:35:15.699Z,514.00
2023-04-27T00:36:15.770Z,513.00
2023-04-27T00:37:15.838Z,512.00
2023-04-27T00:38:15.927Z,510.00
2023-04-27T00:39:16.273Z,514.00
2023-04-27T00:40:16.085Z,509.00
2023-04-27T00:41:16.142Z,516.00
2023-04-27T00:42:16.223Z,518.00
2023-04-27T00:43:16.301Z,514.00
2023-04-27T00:44:16.360Z,514.00
2023-04-27T00:45:16.427Z,510.00
2023-04-27T00:46:16.564Z,516.00
2023-04-27T00:47:16.603Z,510.00
2023-04-27T00:48:16.678Z,520.00
2023-04-27T00:49:16.749Z,518.00
2023-04-27T00:50:16.823Z,520.00
2023-04-27T00:51:16.885Z,519.00
2023-04-27T00:52:16.954Z,517.00
2023-04-27T00:53:17.028Z,520.00
2023-04-27T00:54:17.098Z,522.00
2023-04-27T00:55:17.173Z,518.00
2023-04-27T00:56:17.267Z,523.00
2023-04-27T00:57:17.317Z,514.00
2023-04-27T00:58:17.410Z,524.00
2023-04-27T00:59:17.472Z,519.00
2023-04-27T01:00:17.572Z,523.00
2023-04-27T01:01:17.659Z,520.00
2023-04-27T01:02:17.810Z,519.00
2023-04-27T01:03:18.000Z,521.00
2023-04-27T01:04:18.057Z,514.00
2023-04-27T01:05:17.931Z,522.00
2023-04-27T01:06:18.001Z,525.00
2023-04-27T01:07:18.101Z,518.00
2023-04-27T01:08:18.153Z,518.00
2023-04-27T01:09:18.224Z,517.00
2023-04-27T01:10:18.340Z,517.00
2023-04-27T01:11:18.376Z,520.00
2023-04-27T01:12:18.444Z,516.00
2023-04-27T01:13:18.509Z,515.00
2023-04-27T01:14:18.585Z,515.00
2023-04-27T01:15:18.654Z,513.00
2023-04-27T01:16:18.849Z,510.00
2023-04-27T01:17:18.804Z,515.00
2023-04-27T01:18:18.876Z,513.00
2023-04-27T01:19:18.944Z,518.00
2023-04-27T01:20:19.014Z,511.00
2023-04-27T01:21:19.091Z,513.00
2023-04-27T01:22:19.149Z,512.00
2023-04-27T01:23:19.227Z,512.00
2023-04-27T01:24:19.304Z,514.00
2023-04-27T01:25:19.333Z,514.00
2023-04-27T01:26:19.364Z,507.00
2023-04-27T01:27:19.386Z,517.00
2023-04-27T01:28:19.405Z,513.00
2023-04-27T01:29:19.439Z,512.00
2023-04-27T01:30:19.471Z,510.00
2023-04-27T01:31:19.546Z,509.00
2023-04-27T01:32:19.541Z,514.00
2023-04-27T01:33:19.560Z,517.00
2023-04-27T01:34:19.576Z,512.00
2023-04-27T01:35:19.619Z,512.00
2023-04-27T01:36:19.628Z,518.00
2023-04-27T01:37:19.654Z,514.00
2023-04-27T01:38:19.730Z,509.00
2023-04-27T01:39:19.793Z,516.00
2023-04-27T01:40:19.867Z,516.00
2023-04-27T01:41:19.934Z,512.00
2023-04-27T01:42:20.049Z,513.00
2023-04-27T01:43:20.104Z,506.00
2023-04-27T01:44:20.187Z,506.00
2023-04-27T01:45:20.306Z,511.00
2023-04-27T01:46:20.380Z,513.00
2023-04-27T01:47:20.416Z,508.00
2023-04-27T01:48:20.494Z,507.00
2023-04-27T01:49:20.573Z,516.00
2023-04-27T01:50:20.693Z,512.00
2023-04-27T01:51:20.732Z,512.00
2023-04-27T01:52:20.806Z,510.00
2023-04-27T01:53:20.893Z,512.00
2023-04-27T01:54:20.982Z,508.00
2023-04-27T01:55:21.054Z,504.00
2023-04-27T01:56:21.126Z,508.00
2023-04-27T01:57:21.217Z,501.00
2023-04-27T01:58:21.285Z,510.00
2023-04-27T01:59:21.362Z,513.00
2023-04-27T02:00:21.466Z,512.00
2023-04-27T02:01:21.612Z,512.00
2023-04-27T02:02:21.748Z,509.00
2023-04-27T02:03:21.842Z,510.00
2023-04-27T02:04:21.847Z,510.00
2023-04-27T02:05:21.755Z,511.00
2023-04-27T02:06:21.759Z,511.00
2023-04-27T02:07:21.787Z,512.00
2023-04-27T02:08:21.820Z,504.00
2023-04-27T02:09:21.940Z,509.00
2023-04-27T02:10:21.866Z,507.00
2023-04-27T02:11:21.888Z,512.00
2023-04-27T02:12:21.904Z,504.00
2023-04-27T02:13:21.926Z,511.00
2023-04-27T02:14:21.998Z,508.00
2023-04-27T02:15:22.103Z,502.00
2023-04-27T02:16:22.099Z,508.00
2023-04-27T02:17:22.133Z,508.00
2023-04-27T02:18:22.236Z,506.00
2023-04-27T02:19:22.307Z,511.00
2023-04-27T02:20:22.367Z,505.00
2023-04-27T02:21:22.426Z,506.00
2023-04-27T02:22:22.513Z,504.00
2023-04-27T02:23:22.608Z,503.00
2023-04-27T02:24:22.662Z,509.00
2023-04-27T02:25:22.714Z,509.00
2023-04-27T02:26:22.749Z,509.00
2023-04-27T02:27:22.740Z,509.00
2023-04-27T02:28:22.771Z,506.00
2023-04-27T02:29:22.809Z,507.00
2023-04-27T02:30:22.844Z,502.00
2023-04-27T02:31:22.888Z,502.00
2023-04-27T02:32:22.890Z,503.00
2023-04-27T02:33:22.918Z,511.00
2023-04-27T02:34:22.958Z,511.00
2023-04-27T02:35:22.992Z,507.00
2023-04-27T02:36:23.023Z,506.00
2023-04-27T02:37:23.049Z,502.00
2023-04-27T02:38:23.112Z,506.00
2023-04-27T02:39:23.205Z,508.00
2023-04-27T02:40:23.291Z,507.00
2023-04-27T02:41:23.347Z,509.00
2023-04-27T02:42:23.438Z,511.00
2023-04-27T02:43:23.513Z,509.00
2023-04-27T02:44:23.589Z,511.00
2023-04-27T02:45:23.673Z,511.00
2023-04-27T02:46:23.775Z,509.00
2023-04-27T02:47:23.854Z,509.00
2023-04-27T02:48:23.920Z,508.00
2023-04-27T02:49:23.982Z,503.00
2023-04-27T02:50:24.067Z,506.00
2023-04-27T02:51:24.147Z,503.00
2023-04-27T02:52:24.215Z,505.00
2023-04-27T02:53:24.293Z,511.00
2023-04-27T02:54:24.384Z,505.00
2023-04-27T02:55:24.456Z,503.00
2023-04-27T02:56:24.531Z,503.00
2023-04-27T02:57:24.629Z,509.00
2023-04-27T02:58:24.701Z,508.00
2023-04-27T02:59:24.784Z,500.00
2023-04-27T03:00:24.875Z,511.00
2023-04-27T03:01:25.001Z,510.00
2023-04-27T03:02:25.104Z,513.00
2023-04-27T03:03:25.280Z,517.00
2023-04-27T03:04:25.285Z,512.00
2023-04-27T03:05:25.265Z,514.00
2023-04-27T03:06:25.333Z,514.00
2023-04-27T03:07:25.428Z,512.00
2023-04-27T03:08:25.505Z,510.00
2023-04-27T03:09:25.587Z,508.00
2023-04-27T03:10:25.616Z,508.00
2023-04-27T03:11:25.638Z,506.00
2023-04-27T03:12:25.670Z,508.00
2023-04-27T03:13:25.859Z,512.00
2023-04-27T03:14:25.722Z,509.00
2023-04-27T03:15:25.760Z,506.00
2023-04-27T03:16:25.824Z,506.00
2023-04-27T03:17:25.841Z,504.00
2023-04-27T03:18:25.839Z,504.00
2023-04-27T03:19:25.864Z,509.00
2023-04-27T03:20:25.907Z,504.00
2023-04-27T03:21:25.946Z,501.00
2023-04-27T03:22:26.030Z,510.00
2023-04-27T03:23:26.107Z,508.00
2023-04-27T03:24:26.181Z,501.00
2023-04-27T03:25:26.287Z,505.00
2023-04-27T03:26:26.364Z,500.00
2023-04-27T03:27:26.425Z,505.00
2023-04-27T03:28:26.525Z,509.00
2023-04-27T03:29:26.600Z,515.00
2023-04-27T03:30:26.726Z,512.00
2023-04-27T03:31:26.835Z,508.00
2023-04-27T03:32:26.893Z,504.00
2023-04-27T03:33:26.949Z,506.00
2023-04-27T03:34:27.056Z,499.00
2023-04-27T03:35:27.123Z,512.00
2023-04-27T03:36:27.165Z,512.00
2023-04-27T03:37:27.191Z,512.00
2023-04-27T03:38:27.222Z,513.00
2023-04-27T03:39:27.261Z,512.00
2023-04-27T03:40:27.294Z,513.00
2023-04-27T03:41:27.331Z,516.00
2023-04-27T03:42:27.394Z,516.00
2023-04-27T03:43:27.421Z,516.00
2023-04-27T03:44:27.436Z,515.00
2023-04-27T03:45:27.476Z,509.00
2023-04-27T03:46:27.655Z,514.00
2023-04-27T03:47:27.547Z,512.00
2023-04-27T03:48:27.585Z,509.00
2023-04-27T03:49:27.622Z,512.00
2023-04-27T03:50:29.957Z,515.00
2023-04-27T03:51:27.821Z,506.00
2023-04-27T03:52:27.894Z,503.00
2023-04-27T03:53:27.976Z,505.00
2023-04-27T03:54:28.061Z,508.00
2023-04-27T03:55:28.139Z,513.00
2023-04-27T03:56:28.226Z,518.00
2023-04-27T03:57:28.311Z,516.00
2023-04-27T03:58:28.398Z,520.00
2023-04-27T03:59:28.467Z,513.00
2023-04-27T04:00:28.552Z,510.00
2023-04-27T04:01:28.643Z,505.00
2023-04-27T04:02:28.825Z,505.00
2023-04-27T04:03:28.902Z,509.00
2023-04-27T04:04:28.968Z,507.00
2023-04-27T04:05:28.965Z,506.00
2023-04-27T04:06:29.029Z,504.00
2023-04-27T04:07:29.117Z,503.00
2023-04-27T04:08:29.199Z,508.00
2023-04-27T04:09:29.291Z,510.00
2023-04-27T04:10:29.375Z,506.00
2023-04-27T04:11:29.447Z,510.00
2023-04-27T04:12:29.519Z,511.00
2023-04-27T04:13:29.604Z,515.00
2023-04-27T04:14:29.692Z,513.00
2023-04-27T04:15:29.821Z,511.00
2023-04-27T04:16:30.040Z,506.00
2023-04-27T04:17:29.965Z,510.00
2023-04-27T04:18:29.977Z,507.00
2023-04-27T04:19:30.067Z,509.00
2023-04-27T04:20:30.134Z,512.00
2023-04-27T04:21:30.210Z,516.00
2023-04-27T04:22:30.289Z,515.00
2023-04-27T04:23:30.358Z,515.00
2023-04-27T04:24:30.435Z,514.00
2023-04-27T04:25:30.525Z,510.00
2023-04-27T04:26:30.594Z,516.00
2023-04-27T04:27:30.669Z,512.00
2023-04-27T04:28:30.731Z,506.00
2023-04-27T04:29:30.811Z,507.00
2023-04-27T04:30:30.890Z,500.00
2023-04-27T04:31:31.010Z,508.00
2023-04-27T04:32:31.129Z,507.00
2023-04-27T04:33:31.121Z,514.00
2023-04-27T04:34:31.213Z,506.00
2023-04-27T04:35:31.280Z,511.00
2023-04-27T04:36:31.335Z,509.00
2023-04-27T04:37:31.423Z,502.00
2023-04-27T04:38:31.506Z,505.00
2023-04-27T04:39:31.568Z,504.00
2023-04-27T04:40:31.652Z,510.00
2023-04-27T04:41:31.704Z,513.00
2023-04-27T04:42:31.746Z,513.00
2023-04-27T04:43:31.752Z,513.00
2023-04-27T04:44:31.782Z,513.00
2023-04-27T04:45:31.823Z,507.00
2023-04-27T04:46:31.857Z,512.00
2023-04-27T04:47:31.928Z,509.00
2023-04-27T04:48:31.929Z,509.00
2023-04-27T04:49:32.008Z,509.00
2023-04-27T04:50:32.069Z,503.00
2023-04-27T04:51:32.008Z,509.00
2023-04-27T04:52:32.050Z,515.00
2023-04-27T04:53:32.114Z,514.00
2023-04-27T04:54:32.109Z,513.00
2023-04-27T04:55:32.148Z,515.00
2023-04-27T04:56:32.185Z,515.00
2023-04-27T04:57:32.252Z,512.00
2023-04-27T04:58:32.323Z,507.00
2023-04-27T04:59:32.387Z,511.00
2023-04-27T05:00:32.463Z,506.00
2023-04-27T05:01:32.572Z,507.00
2023-04-27T05:02:32.578Z,507.00
2023-04-27T05:03:32.777Z,509.00
2023-04-27T05:04:32.766Z,515.00
2023-04-27T05:05:32.637Z,514.00
2023-04-27T05:06:32.673Z,517.00
2023-04-27T05:07:32.702Z,514.00
2023-04-27T05:08:32.716Z,519.00
2023-04-27T05:09:32.744Z,519.00
2023-04-27T05:10:32.809Z,515.00
2023-04-27T05:11:32.804Z,514.00
2023-04-27T05:12:32.826Z,511.00
2023-04-27T05:13:32.867Z,515.00
2023-04-27T05:14:32.904Z,516.00
2023-04-27T05:15:32.922Z,518.00
2023-04-27T05:16:32.998Z,515.00
2023-04-27T05:17:32.999Z,510.00
2023-04-27T05:18:33.015Z,506.00
2023-04-27T05:19:33.044Z,514.00
2023-04-27T05:20:33.078Z,506.00
2023-04-27T05:21:33.100Z,515.00
2023-04-27T05:22:33.136Z,509.00
2023-04-27T05:23:33.201Z,514.00
2023-04-27T05:24:33.205Z,516.00
2023-04-27T05:25:33.288Z,517.00
2023-04-27T05:26:33.420Z,515.00
2023-04-27T05:27:33.437Z,514.00
2023-04-27T05:28:33.522Z,514.00
2023-04-27T05:29:33.574Z,513.00
2023-04-27T05:30:33.667Z,509.00
2023-04-27T05:31:33.758Z,515.00
2023-04-27T05:32:33.835Z,515.00
2023-04-27T05:33:33.840Z,516.00
2023-04-27T05:34:33.814Z,521.00
2023-04-27T05:35:34.051Z,535.00
2023-04-27T05:36:33.923Z,552.00
2023-04-27T05:37:33.862Z,578.00
2023-04-27T05:38:33.895Z,588.00
2023-04-27T05:39:33.918Z,588.00
2023-04-27T05:40:33.958Z,589.00
2023-04-27T05:41:33.965Z,592.00
2023-04-27T05:42:33.984Z,590.00
2023-04-27T05:43:34.005Z,597.00
2023-04-27T05:44:34.028Z,610.00
2023-04-27T05:45:34.077Z,637.00
2023-04-27T05:46:34.947Z,723.00
2023-04-27T05:47:34.142Z,768.00
2023-04-27T05:48:34.140Z,809.00
2023-04-27T05:49:34.147Z,803.00
2023-04-27T05:50:34.177Z,784.00
2023-04-27T05:51:34.185Z,758.00
2023-04-27T05:52:35.800Z,650.00
2023-04-27T05:53:34.224Z,629.00
2023-04-27T05:54:34.266Z,616.00
2023-04-27T05:55:34.624Z,608.00
2023-04-27T05:56:34.329Z,622.00
2023-04-27T05:57:34.389Z,627.00
2023-04-27T05:58:34.372Z,626.00
2023-04-27T05:59:34.374Z,637.00
2023-04-27T06:00:34.412Z,653.00
2023-04-27T06:01:34.434Z,655.00
2023-04-27T06:02:34.586Z,663.00
2023-04-27T06:03:34.720Z,729.00
2023-04-27T06:04:34.568Z,780.00
2023-04-27T06:05:34.677Z,781.00
2023-04-27T06:06:34.524Z,793.00
2023-04-27T06:07:34.541Z,828.00
2023-04-27T06:08:34.557Z,885.00
2023-04-27T06:09:34.585Z,985.00
2023-04-27T06:10:34.704Z,1064.00
2023-04-27T06:11:34.620Z,1082.00
2023-04-27T06:12:34.603Z,1086.00
2023-04-27T06:13:34.669Z,1102.00
2023-04-27T06:14:34.628Z,1145.00
2023-04-27T06:15:34.761Z,1220.00
2023-04-27T06:16:34.819Z,1354.00
2023-04-27T06:17:34.714Z,1394.00
2023-04-27T06:18:34.711Z,1438.00
2023-04-27T06:19:34.709Z,1490.00
2023-04-27T06:20:34.736Z,1523.00
2023-04-27T06:21:34.723Z,1550.00
2023-04-27T06:22:34.740Z,1587.00
2023-04-27T06:23:34.751Z,1589.00
2023-04-27T06:24:34.784Z,1598.00
2023-04-27T06:25:34.787Z,1592.00
2023-04-27T06:26:34.904Z,1613.00
2023-04-27T06:27:34.809Z,1654.00
2023-04-27T06:28:34.810Z,1730.00
2023-04-27T06:29:34.825Z,1845.00
2023-04-27T06:30:35.458Z,1818.00
2023-04-27T06:31:34.926Z,1821.00
2023-04-27T06:32:34.819Z,1823.00
2023-04-27T06:33:34.820Z,1832.00
2023-04-27T06:34:34.806Z,1847.00
2023-04-27T06:35:34.814Z,1825.00
2023-04-27T06:36:34.877Z,1836.00
2023-04-27T06:37:34.856Z,1857.00
2023-04-27T06:38:34.821Z,1897.00
2023-04-27T06:39:34.833Z,2009.00
2023-04-27T06:40:34.832Z,2047.00
2023-04-27T06:41:34.846Z,2003.00
2023-04-27T06:42:34.836Z,2008.00
2023-04-27T06:43:34.861Z,1904.00
2023-04-27T06:44:34.911Z,1822.00
2023-04-27T06:45:34.921Z,1735.00
2023-04-27T06:46:35.026Z,1723.00
2023-04-27T06:47:34.932Z,1687.00
2023-04-27T06:48:34.951Z,1739.00
2023-04-27T06:49:34.968Z,1744.00
2023-04-27T06:50:34.998Z,1729.00
2023-04-27T06:51:34.949Z,1738.00
2023-04-27T06:52:35.040Z,1758.00
2023-04-27T06:53:35.038Z,1758.00
2023-04-27T06:54:35.132Z,1798.00
2023-04-27T06:55:35.169Z,1827.00
2023-04-27T06:56:35.251Z,1815.00
2023-04-27T06:57:35.400Z,1818.00
2023-04-27T06:58:35.516Z,1817.00
2023-04-27T06:59:35.461Z,1812.00
2023-04-27T07:00:35.593Z,1793.00
2023-04-27T07:01:35.662Z,1802.00
2023-04-27T07:02:35.770Z,1804.00
2023-04-27T07:03:35.880Z,1779.00
2023-04-27T07:04:35.831Z,1776.00
2023-04-27T07:05:35.875Z,1769.00
2023-04-27T07:06:35.947Z,1823.00
2023-04-27T07:07:36.020Z,1775.00
2023-04-27T07:08:36.122Z,1821.00
2023-04-27T07:09:36.161Z,1837.00
2023-04-27T07:10:36.260Z,1854.00
2023-04-27T07:11:36.316Z,1839.00
2023-04-27T07:12:36.372Z,1854.00
2023-04-27T07:13:36.467Z,1905.00
2023-04-27T07:14:36.527Z,1890.00
2023-04-27T07:15:36.908Z,1911.00
2023-04-27T07:16:36.818Z,1914.00
2023-04-27T07:17:36.804Z,1944.00
2023-04-27T07:18:36.825Z,1956.00
2023-04-27T07:19:36.857Z,1951.00
2023-04-27T07:20:36.988Z,1964.00
2023-04-27T07:21:37.018Z,1998.00
2023-04-27T07:22:37.087Z,2001.00
2023-04-27T07:23:37.151Z,2026.00
2023-04-27T07:24:37.245Z,1956.00
2023-04-27T07:25:37.390Z,1967.00
2023-04-27T07:26:37.428Z,1991.00
2023-04-27T07:27:37.475Z,2024.00
2023-04-27T07:28:37.491Z,2025.00
2023-04-27T07:29:37.546Z,2060.00
2023-04-27T07:30:37.617Z,2064.00
2023-04-27T07:31:37.808Z,2064.00
2023-04-27T07:32:38.175Z,2065.00
2023-04-27T07:33:37.615Z,2052.00
2023-04-27T07:34:52.009Z,1981.00
2023-04-27T07:35:38.619Z,2015.00
2023-04-27T07:36:37.892Z,2064.00
2023-04-27T07:37:37.792Z,2067.00
2023-04-27T07:38:37.636Z,2050.00
2023-04-27T07:39:37.626Z,1799.00
2023-04-27T07:40:37.625Z,1638.00
2023-04-27T07:41:37.634Z,1539.00
2023-04-27T07:42:37.630Z,1341.00
2023-04-27T07:43:37.615Z,1218.00
2023-04-27T07:44:37.629Z,1087.00
2023-04-27T07:45:37.652Z,1028.00
2023-04-27T07:46:37.649Z,868.00
2023-04-27T07:47:37.731Z,749.00
2023-04-27T07:48:37.766Z,661.00
2023-04-27T07:49:37.804Z,634.00
2023-04-27T07:50:37.947Z,581.00
2023-04-27T07:51:37.951Z,516.00
2023-04-27T07:52:38.032Z,499.00
2023-04-27T07:53:38.106Z,505.00
2023-04-27T07:54:38.165Z,511.00
2023-04-27T07:55:38.207Z,504.00
2023-04-27T07:56:38.254Z,497.00
2023-04-27T07:57:38.298Z,500.00
2023-04-27T07:58:38.388Z,500.00
2023-04-27T07:59:38.479Z,482.00
2023-04-27T08:00:38.574Z,520.00
2023-04-27T08:01:38.664Z,490.00
2023-04-27T08:02:38.876Z,524.00
2023-04-27T08:03:39.056Z,552.00
2023-04-27T08:04:39.207Z,495.00
2023-04-27T08:05:39.289Z,521.00
2023-04-27T08:06:39.226Z,522.00
2023-04-27T08:07:44.221Z,523.00
2023-04-27T08:08:39.903Z,490.00
2023-04-27T08:09:38.892Z,506.00
2023-04-27T08:10:38.913Z,472.00
2023-04-27T08:11:38.931Z,425.00
2023-04-27T08:12:38.968Z,422.00
2023-04-27T08:13:38.984Z,400.00
2023-04-27T08:14:38.970Z,400.00
2023-04-27T08:15:39.004Z,400.00
2023-04-27T08:16:39.046Z,400.00
2023-04-27T08:17:39.066Z,400.00
2023-04-27T08:18:39.061Z,400.00
2023-04-27T08:19:39.107Z,400.00
2023-04-27T08:20:39.120Z,405.00
2023-04-27T08:21:39.141Z,400.00
2023-04-27T08:22:39.235Z,415.00
2023-04-27T08:23:39.193Z,418.00
2023-04-27T08:24:39.223Z,452.00
2023-04-27T08:25:39.246Z,453.00
2023-04-27T08:26:39.300Z,461.00
2023-04-27T08:27:39.316Z,497.00
2023-04-27T08:28:39.338Z,509.00
2023-04-27T08:29:39.452Z,496.00
2023-04-27T08:30:39.514Z,525.00
2023-04-27T08:31:39.637Z,529.00
2023-04-27T08:32:39.752Z,581.00
2023-04-27T08:33:39.756Z,672.00
2023-04-27T08:34:39.852Z,807.00
2023-04-27T08:35:39.940Z,877.00
2023-04-27T08:36:40.061Z,895.00
2023-04-27T08:37:40.188Z,981.00
2023-04-27T08:38:40.212Z,1011.00
2023-04-27T08:39:40.228Z,1014.00
2023-04-27T08:40:40.264Z,1015.00
2023-04-27T08:41:40.337Z,1012.00
2023-04-27T08:42:40.495Z,929.00
2023-04-27T08:43:40.583Z,765.00
2023-04-27T08:44:40.375Z,610.00
2023-04-27T08:45:40.433Z,665.00
2023-04-27T08:46:40.509Z,771.00
2023-04-27T08:47:43.834Z,639.00
2023-04-27T08:48:40.493Z,845.00
2023-04-27T08:49:40.528Z,1104.00
2023-04-27T08:50:40.537Z,1253.00
2023-04-27T08:51:40.577Z,1336.00
2023-04-27T08:52:40.597Z,1017.00
2023-04-27T08:53:40.623Z,1036.00
2023-04-27T08:54:40.627Z,852.00
2023-04-27T08:55:40.659Z,841.00
2023-04-27T08:56:40.721Z,903.00
2023-04-27T08:57:40.731Z,958.00
2023-04-27T08:58:40.755Z,872.00
2023-04-27T08:59:40.784Z,885.00
2023-04-27T09:00:40.810Z,918.00
2023-04-27T09:01:40.877Z,859.00
2023-04-27T09:02:40.950Z,872.00
2023-04-27T09:03:41.115Z,925.00
2023-04-27T09:04:41.033Z,912.00
2023-04-27T09:05:49.487Z,930.00
2023-04-27T09:06:41.981Z,928.00
2023-04-27T09:07:40.999Z,945.00
2023-04-27T09:08:41.028Z,978.00
2023-04-27T09:09:41.064Z,1078.00
2023-04-27T09:10:41.166Z,1244.00
2023-04-27T09:11:41.106Z,1329.00
2023-04-27T09:12:41.125Z,1355.00
2023-04-27T09:13:41.229Z,1396.00
2023-04-27T09:14:41.166Z,1383.00
2023-04-27T09:15:41.177Z,1453.00
2023-04-27T09:16:41.258Z,1503.00
2023-04-27T09:17:41.256Z,1525.00
2023-04-27T09:18:41.242Z,1486.00
2023-04-27T09:19:41.426Z,1525.00
2023-04-27T09:20:41.350Z,1613.00
2023-04-27T09:21:41.313Z,1525.00
2023-04-27T09:22:41.326Z,1573.00
2023-04-27T09:23:41.331Z,1595.00
2023-04-27T09:24:41.380Z,1589.00
2023-04-27T09:25:41.370Z,1462.00
2023-04-27T09:26:41.394Z,1440.00
2023-04-27T09:27:41.404Z,1514.00
2023-04-27T09:28:41.446Z,1504.00
2023-04-27T09:29:42.204Z,1422.00
2023-04-27T09:30:41.720Z,1427.00
2023-04-27T09:31:41.733Z,1454.00
2023-04-27T09:32:41.766Z,1440.00
2023-04-27T09:33:41.757Z,1480.00
2023-04-27T09:34:41.795Z,1577.00
2023-04-27T09:35:41.837Z,1621.00
2023-04-27T09:36:41.867Z,1496.00
2023-04-27T09:37:41.865Z,1640.00
2023-04-27T09:38:41.879Z,1434.00
2023-04-27T09:39:41.960Z,1339.00
2023-04-27T09:40:41.971Z,1164.00
2023-04-27T09:41:42.030Z,1505.00
2023-04-27T09:42:42.091Z,1642.00
2023-04-27T09:43:42.077Z,1647.00
2023-04-27T09:44:42.102Z,1134.00
2023-04-27T09:45:42.225Z,1417.00
2023-04-27T09:46:42.113Z,1612.00
2023-04-27T09:47:42.182Z,1683.00
2023-04-27T09:48:42.121Z,1644.00
2023-04-27T09:49:42.204Z,1670.00
2023-04-27T09:50:42.159Z,1707.00
2023-04-27T09:51:42.273Z,1800.00
2023-04-27T09:52:42.214Z,1891.00
2023-04-27T09:53:42.212Z,1913.00
2023-04-27T09:54:42.246Z,1942.00
2023-04-27T09:55:42.235Z,1968.00
2023-04-27T09:56:42.248Z,2025.00
2023-04-27T09:57:42.253Z,2027.00
2023-04-27T09:58:42.359Z,2040.00
2023-04-27T09:59:42.294Z,2078.00
2023-04-27T10:00:42.276Z,2136.00
2023-04-27T10:01:42.517Z,2246.00
2023-04-27T10:02:52.713Z,2311.00
2023-04-27T10:03:43.533Z,2312.00
2023-04-27T10:04:42.490Z,2319.00
2023-04-27T10:05:42.329Z,2330.00
2023-04-27T10:06:42.362Z,2315.00
2023-04-27T10:07:42.358Z,2333.00
2023-04-27T10:08:42.375Z,2371.00
2023-04-27T10:09:42.384Z,2445.00
2023-04-27T10:10:42.394Z,2567.00
2023-04-27T10:11:42.396Z,2641.00
2023-04-27T10:12:42.448Z,2652.00
2023-04-27T10:13:42.401Z,2646.00
2023-04-27T10:14:42.414Z,2704.00
2023-04-27T10:15:42.433Z,2705.00
2023-04-27T10:16:42.506Z,2704.00
2023-04-27T10:17:42.485Z,2693.00
2023-04-27T10:18:42.465Z,2720.00
2023-04-27T10:19:42.492Z,2713.00
2023-04-27T10:20:42.466Z,2718.00
2023-04-27T10:21:42.465Z,2722.00
2023-04-27T10:22:42.512Z,2809.00
2023-04-27T10:23:42.532Z,2844.00
2023-04-27T10:24:42.635Z,2923.00
2023-04-27T10:25:42.712Z,2908.00
2023-04-27T10:26:42.757Z,2957.00
2023-04-27T10:27:42.801Z,3004.00
2023-04-27T10:28:42.897Z,3079.00
2023-04-27T10:29:42.939Z,3142.00
2023-04-27T10:30:43.096Z,3139.00
2023-04-27T10:31:43.081Z,3194.00
2023-04-27T10:32:43.205Z,3204.00
2023-04-27T10:33:43.163Z,3247.00
2023-04-27T10:34:43.220Z,3276.00
2023-04-27T10:35:43.340Z,3291.00
2023-04-27T10:36:43.516Z,3319.00
2023-04-27T10:37:43.413Z,3419.00
2023-04-27T10:38:43.465Z,3505.00
2023-04-27T10:39:47.653Z,3638.00
2023-04-27T10:40:44.540Z,3645.00
2023-04-27T10:41:43.511Z,3669.00
2023-04-27T10:42:43.503Z,3720.00
2023-04-27T10:43:43.498Z,3750.00
2023-04-27T10:44:43.509Z,3816.00
2023-04-27T10:45:43.493Z,3758.00
2023-04-27T10:46:43.577Z,3723.00
2023-04-27T10:47:43.537Z,3746.00
2023-04-27T10:48:43.601Z,3737.00
2023-04-27T10:49:43.508Z,3728.00
2023-04-27T10:50:43.489Z,3716.00
2023-04-27T10:51:44.229Z,3726.00
2023-04-27T10:52:43.496Z,3758.00
2023-04-27T10:53:43.502Z,3776.00
2023-04-27T10:54:43.624Z,3792.00
2023-04-27T10:55:43.491Z,3724.00
2023-04-27T10:56:43.494Z,3713.00
2023-04-27T10:57:43.474Z,3770.00
2023-04-27T10:58:48.803Z,3772.00
2023-04-27T10:59:44.472Z,3771.00
2023-04-27T11:00:43.479Z,3770.00
2023-04-27T11:01:43.467Z,3782.00
2023-04-27T11:02:43.552Z,3799.00
2023-04-27T11:03:44.383Z,3827.00
2023-04-27T11:04:43.415Z,3854.00
2023-04-27T11:05:43.449Z,3832.00
2023-04-27T11:06:43.469Z,3875.00
2023-04-27T11:07:43.423Z,3892.00
2023-04-27T11:08:43.419Z,3922.00
2023-04-27T11:09:43.491Z,3914.00
2023-04-27T11:10:43.391Z,3929.00
2023-04-27T11:11:43.444Z,3901.00
2023-04-27T11:12:43.431Z,3862.00
2023-04-27T11:13:43.399Z,3847.00
2023-04-27T11:14:43.407Z,3892.00
2023-04-27T11:15:43.443Z,3916.00
2023-04-27T11:16:43.506Z,3917.00
2023-04-27T11:17:43.579Z,3891.00
2023-04-27T11:18:43.435Z,3878.00
2023-04-27T11:19:43.522Z,3896.00
2023-04-27T11:20:43.376Z,3930.00
2023-04-27T11:21:43.545Z,3898.00
2023-04-27T11:22:43.392Z,3890.00
2023-04-27T11:23:43.429Z,3897.00
2023-04-27T11:24:43.376Z,3919.00
2023-04-27T11:25:43.378Z,3918.00
2023-04-27T11:26:43.357Z,3867.00
2023-04-27T11:27:43.347Z,3915.00
2023-04-27T11:28:43.427Z,3972.00
2023-04-27T11:29:43.371Z,4098.00
2023-04-27T11:30:43.351Z,4202.00
2023-04-27T11:31:43.410Z,4241.00
2023-04-27T11:32:43.427Z,4243.00
2023-04-27T11:33:43.370Z,4263.00
2023-04-27T11:34:43.357Z,4191.00
2023-04-27T11:35:43.409Z,4188.00
2023-04-27T11:36:43.422Z,4191.00
2023-04-27T11:37:43.590Z,4143.00
2023-04-27T11:38:43.535Z,4068.00
2023-04-27T11:39:43.504Z,4053.00
2023-04-27T11:40:43.527Z,4046.00
2023-04-27T11:41:43.568Z,4001.00
2023-04-27T11:42:43.590Z,3980.00
2023-04-27T11:43:43.614Z,3895.00
2023-04-27T11:44:43.644Z,3818.00
2023-04-27T11:45:43.685Z,3849.00
2023-04-27T11:46:43.747Z,3793.00
2023-04-27T11:47:43.801Z,3757.00
2023-04-27T11:48:43.795Z,3737.00
2023-04-27T11:49:43.832Z,3718.00
2023-04-27T11:50:43.865Z,3657.00
2023-04-27T11:51:43.906Z,3689.00
2023-04-27T11:52:43.939Z,3732.00
2023-04-27T11:53:43.987Z,3742.00
2023-04-27T11:54:43.965Z,3743.00
2023-04-27T11:55:43.973Z,3744.00
2023-04-27T11:56:43.943Z,3742.00
2023-04-27T11:57:43.957Z,3701.00
2023-04-27T11:58:44.472Z,3703.00
2023-04-27T11:59:43.947Z,3694.00
2023-04-27T12:00:43.942Z,3661.00
2023-04-27T12:01:43.962Z,3625.00
2023-04-27T12:02:44.296Z,3656.00
2023-04-27T12:03:44.048Z,3660.00
2023-04-27T12:04:44.086Z,3628.00
2023-04-27T12:05:44.062Z,3594.00
2023-04-27T12:06:44.077Z,3579.00
2023-04-27T12:07:44.076Z,3600.00
2023-04-27T12:08:44.094Z,3583.00
2023-04-27T12:09:44.137Z,3573.00
2023-04-27T12:10:44.162Z,3566.00
2023-04-27T12:11:44.207Z,3556.00
2023-04-27T12:12:44.240Z,3547.00
2023-04-27T12:13:44.280Z,3521.00
2023-04-27T12:14:44.327Z,3455.00
2023-04-27T12:15:44.366Z,3475.00
2023-04-27T12:16:44.444Z,3493.00
2023-04-27T12:17:44.466Z,3484.00
2023-04-27T12:18:44.489Z,3483.00
2023-04-27T12:19:44.533Z,3429.00